• Join FlightAware (Why Join?)
  • Login
  • US Flag 
10:58PM EDT


 

Airport Tracker/Info


-or-


 

Live Flight TrackerFlight Track Log ✈ DAL1515 ✈ 08-Jul-2013 ✈ KATL - KALB

Flight Track Log - Related Links

Times and Time Zones

All times are in EDT time to prevent confusion due to time zone crossing. See the DAL1515 flight status page for this flight to view local times or setup timezone preferences in your user account.

Time Position Orientation Groundspeed Altitude Reporting Facility
EDT Latitude Longitude Course Direction KTS MPH feet Rate Location/Type
08:34PM 33.6536 -84.4881 North 448 516 2,700  Level Atlanta Center
08:35PM 33.6825 -84.5606 296° West 366 421 4,600 2,220 Climbing Atlanta Center
08:36PM 33.7514 -84.5836 344° North 250 288 7,200 2,580 Climbing Atlanta Center
08:37PM 33.9215 -84.2548 320° Northwest  Level FlightAware Approximate
08:37PM 33.8347 -84.5739 North 307 353 9,800  Level Atlanta Center
08:38PM 34.0376 -84.2667 North  Level FlightAware Approximate
08:38PM 33.9331 -84.5544 North 314 361 11,700  Level Atlanta Center
08:39PM 34.1572 -84.2667 North  Level FlightAware Approximate
08:39PM 34.0311 -84.5325 11° North 335 386 13,900  Level Atlanta Center
08:40PM 34.2768 -84.2667 North  Level FlightAware Approximate
08:40PM 34.1064 -84.5081 15° North 333 383 16,100  Level Atlanta Center
08:41PM 34.2256 -84.4758 13° North 360 414 18,200 2,100 Climbing Atlanta Center
08:42PM 34.3175 -84.4261 24° Northeast 361 415 20,300 1,740 Climbing Atlanta Center
08:43PM 34.4136 -84.3761 23° Northeast 361 415 21,700 1,140 Climbing Atlanta Center
08:44PM 34.5036 -84.3311 22° Northeast 372 428 22,600 1,260 Climbing Atlanta Center
08:45PM 34.6058 -84.2861 20° North 389 448 24,300 1,080 Climbing Atlanta Center
08:46PM 34.7208 -84.2486 15° North 395 455 24,800 480 Climbing Atlanta Center
08:47PM 34.8378 -84.2133 14° North 424 488 25,300 900 Climbing Atlanta Center
08:48PM 34.9714 -84.1756 13° North 432 497 26,700 1,380 Climbing Atlanta Center
08:49PM 35.0964 -84.1403 13° North 443 510 28,100 1,560 Climbing Atlanta Center
08:50PM 35.2133 -84.1050 14° North 443 510 29,900 1,320 Climbing Atlanta Center
08:51PM 35.3303 -84.0692 14° North 437 503 30,800 900 Climbing Atlanta Center
08:52PM 35.4492 -84.0336 14° North 432 497 31,700 600 Climbing Atlanta Center
08:53PM 35.5681 -83.9978 14° North 432 497 32,000 480 Climbing Atlanta Center
08:54PM 35.6806 -83.9467 20° North 432 497 32,700 480 Climbing Atlanta Center
08:55PM 35.7892 -83.8878 24° Northeast 427 491 33,000 120 Climbing Atlanta Center
08:56PM 35.8975 -83.8311 23° Northeast 421 484 33,000  Level Atlanta Center
08:57PM 36.0058 -83.7744 23° Northeast 415 478 33,000  Level Atlanta Center
08:58PM 36.1142 -83.7150 24° Northeast 415 478 33,000  Level Atlanta Center
08:59PM 36.2014 -83.6642 25° Northeast 428 493 33,000  Level Indianapolis Center
09:00PM 36.3092 -83.6058 24° Northeast 425 489 33,000  Level Indianapolis Center
09:01PM 36.4192 -83.5456 24° Northeast 430 495 33,000  Level Indianapolis Center
09:02PM 36.5375 -83.4808 24° Northeast 433 498 33,000  Level Indianapolis Center
09:03PM 36.6461 -83.4161 26° Northeast 431 496 33,000  Level Indianapolis Center
09:04PM 36.7422 -83.3214 38° Northeast 436 502 33,000  Level Indianapolis Center
09:05PM 36.8325 -83.2194 42° Northeast 435 501 33,000  Level Indianapolis Center
09:06PM 36.9225 -83.1150 43° Northeast 437 503 33,000  Level Indianapolis Center
09:07PM 37.0158 -83.0092 42° Northeast 440 506 33,000  Level Indianapolis Center
09:08PM 37.1064 -82.8997 44° Northeast 444 511 33,000  Level Indianapolis Center
09:10PM 37.1958 -82.7944 43° Northeast 437 503 33,000  Level Indianapolis Center
09:11PM 37.2847 -82.6900 43° Northeast 438 504 33,000  Level Indianapolis Center
09:12PM 37.3750 -82.5856 43° Northeast 440 506 33,000  Level Indianapolis Center
09:13PM 37.4797 -82.4631 43° Northeast 439 505 33,000  Level Indianapolis Center
09:14PM 37.5681 -82.3575 43° Northeast 436 502 33,000  Level Indianapolis Center
09:15PM 37.6561 -82.2489 44° Northeast 440 506 33,000  Level Indianapolis Center
09:16PM 37.7439 -82.1414 44° Northeast 439 505 33,000  Level Indianapolis Center
09:17PM 37.8322 -82.0336 44° Northeast 441 507 33,000  Level Indianapolis Center
09:18PM 37.9206 -81.9242 44° Northeast 441 507 33,000  Level Indianapolis Center
09:19PM 38.0150 -81.8275 39° Northeast 440 506 33,000  Level Indianapolis Center
09:20PM 38.1150 -81.7417 45° Northeast 436 502 33,000  Level Indianapolis Center
09:21PM 38.1529 -81.6536 45° Northeast  Level FlightAware Approximate
09:21PM 38.2144 -81.6553 34° Northeast 435 501 33,000  Level Indianapolis Center
09:22PM 38.3311 -81.5447 37° Northeast 435 501 33,000  Level Indianapolis Center
09:23PM 38.4139 -81.4328 47° Northeast 437 503 33,000  Level Indianapolis Center
09:24PM 38.4972 -81.3231 46° Northeast 437 503 33,000  Level Indianapolis Center
09:25PM 38.5814 -81.2142 45° Northeast 437 503 33,000  Level Indianapolis Center
09:26PM 38.6653 -81.1039 46° Northeast 437 503 33,000  Level Indianapolis Center
09:27PM 38.7497 -80.9925 46° Northeast 439 505 33,000  Level Indianapolis Center
09:28PM 38.8522 -80.8586 45° Northeast 437 503 33,000  Level Indianapolis Center
09:29PM 38.9361 -80.7478 46° Northeast 440 506 33,000  Level Indianapolis Center
09:30PM 39.0194 -80.6356 46° Northeast 434 499 33,000  Level Indianapolis Center
09:31PM 39.1042 -80.5236 46° Northeast 436 502 33,000  Level Indianapolis Center
09:32PM 39.1858 -80.4114 47° Northeast 432 497 33,000  Level Indianapolis Center
09:33PM 39.2694 -80.2997 46° Northeast 432 497 33,000  Level Indianapolis Center
09:34PM 39.3528 -80.1878 46° Northeast 434 499 33,000  Level Indianapolis Center
09:35PM 39.4219 -80.0994 45° Northeast 431 496 33,000  Level Cleveland Center
09:36PM 39.5050 -79.9858 47° Northeast 431 496 33,000  Level Cleveland Center
09:37PM 39.5875 -79.8719 47° Northeast 431 496 33,000  Level Cleveland Center
09:38PM 39.6744 -79.7578 45° Northeast 431 496 33,000  Level Cleveland Center
09:39PM 39.7589 -79.6433 46° Northeast 431 496 33,000  Level Cleveland Center
09:40PM 39.8414 -79.5286 47° Northeast 431 496 33,000  Level Cleveland Center
09:41PM 39.9194 -79.4031 51° Northeast 431 496 33,000  Level Cleveland Center
09:42PM 39.9908 -79.2797 53° Northeast 431 496 33,000  Level Cleveland Center
09:43PM 40.0642 -79.1372 56° Northeast 431 496 33,000  Level Cleveland Center
09:44PM 40.1356 -79.0108 54° Northeast 431 496 33,000  Level Cleveland Center
09:45PM 40.2067 -78.8814 54° Northeast 431 496 33,000  Level Cleveland Center
09:46PM 40.2756 -78.7517 55° Northeast 431 496 33,000  Level Cleveland Center
09:47PM 40.3403 -78.6356 54° Northeast 436 502 33,000  Level Cleveland Center
09:49PM 40.5083 -78.3139 55° Northeast 447 514 33,000  Level New York Center
09:50PM 40.5792 -78.1822 55° Northeast 442 509 33,000  Level New York Center
09:51PM 40.6550 -78.0372 55° Northeast 437 503 33,000  Level New York Center
09:52PM 40.7233 -77.9075 55° Northeast 437 503 33,000  Level New York Center
09:53PM 40.7994 -77.7864 50° Northeast 437 503 33,000  Level New York Center
09:54PM 40.8889 -77.6803 42° Northeast 431 496 33,000 -240 Level New York Center
09:55PM 40.9764 -77.5736 43° Northeast 425 489 32,600 -900 Descending New York Center
09:56PM 41.0636 -77.4697 42° Northeast 425 489 31,300 -1,140 Descending New York Center
09:57PM 41.1353 -77.3831 42° Northeast 425 489 30,400 -660 Descending New York Center
09:58PM 41.2286 -77.2733 41° Northeast 419 482 30,000 -720 Descending New York Center
09:59PM 41.3178 -77.1686 41° Northeast 419 482 29,000 -540 Descending New York Center
10:00PM 41.4047 -77.0636 42° Northeast 419 482 29,000  Level New York Center
10:01PM 41.4917 -76.9525 44° Northeast 419 482 29,000 -60 Level New York Center
10:02PM 41.5806 -76.8469 42° Northeast 419 482 28,900 -900 Descending New York Center
10:03PM 41.6672 -76.7383 43° Northeast 419 482 27,300 -960 Descending New York Center
10:04PM 41.7492 -76.6428 41° Northeast 419 482 27,000 -720 Descending New York Center
10:05PM 41.8467 -76.5206 43° Northeast 425 489 25,900 -840 Descending New York Center
10:06PM 41.9372 -76.4139 41° Northeast 431 496 25,400 -720 Descending New York Center
10:07PM 42.0322 -76.2964 43° Northeast 426 490 24,500 -540 Descending New York Center
10:09PM 42.1719 -76.1158 44° Northeast 416 479 24,000 -240 Descending Boston Center
10:10PM 42.2225 -75.9672 65° Northeast 416 479 24,000  Level Boston Center
10:11PM 42.2731 -75.8186 65° Northeast 421 484 24,000  Level Boston Center
10:12PM 42.3164 -75.6889 66° East 416 479 24,000 -60 Level Boston Center
10:13PM 42.3664 -75.5453 65° Northeast 416 479 23,900 -480 Descending Boston Center
10:14PM 42.4161 -75.3989 65° Northeast 416 479 23,100 -960 Descending Boston Center
10:15PM 42.4633 -75.2575 66° East 411 473 22,000 -1,320 Descending Boston Center
10:16PM 42.4961 -75.1069 74° East 411 473 20,500 -2,040 Descending Boston Center
10:17PM 42.5183 -74.9614 78° East 417 480 18,200 -2,460 Descending Boston Center
10:18PM 42.5436 -74.8553 72° East 395 455 16,400 -2,220 Descending Boston Center
10:19PM 42.5469 -74.6892 88° East 377 434 14,000 -2,100 Descending Boston Center
10:20PM 42.5600 -74.5542 82° East 363 418 12,000 -1,620 Descending Boston Center
10:21PM 42.5578 -74.4386 91° East 328 377 11,000 -1,200 Descending Boston Center
10:22PM 42.5556 -74.3258 91° East 294 338 9,800 -1,380 Descending Boston Center
10:23PM 42.5553 -74.2242 90° East 288 331 8,400 -1,500 Descending Boston Center
10:24PM 42.5569 -74.1172 89° East 284 327 6,900 -1,500 Descending Boston Center
10:25PM 42.5561 -74.0158 91° East 275 316 5,400 -1,740 Descending Boston Center
10:26PM 42.5556 -73.9142 90° East 269 310 3,400 -1,980 Descending Boston Center